sensor_id;sensor_type;location;lat;lon;timestamp;temperature;humidity
2054;DHT22;1032;52.542;13.440;2022-10-23T00:01:54;14.80;99.90
2054;DHT22;1032;52.542;13.440;2022-10-23T00:04:22;14.70;99.90
2054;DHT22;1032;52.542;13.440;2022-10-23T00:06:50;14.40;99.90
2054;DHT22;1032;52.542;13.440;2022-10-23T00:09:18;14.70;99.90
2054;DHT22;1032;52.542;13.440;2022-10-23T00:11:46;14.50;99.90
2054;DHT22;1032;52.542;13.440;2022-10-23T00:14:13;14.90;99.90
2054;DHT22;1032;52.542;13.440;2022-10-23T00:16:42;14.30;99.90
2054;DHT22;1032;52.542;13.440;2022-10-23T00:19:08;14.90;99.90
2054;DHT22;1032;52.542;13.440;2022-10-23T00:21:35;14.60;99.90
2054;DHT22;1032;52.542;13.440;2022-10-23T00:24:02;14.70;99.90
2054;DHT22;1032;52.542;13.440;2022-10-23T00:26:29;14.70;99.90
2054;DHT22;1032;52.542;13.440;2022-10-23T00:28:55;14.70;99.90
2054;DHT22;1032;52.542;13.440;2022-10-23T00:31:23;14.40;99.90
2054;DHT22;1032;52.542;13.440;2022-10-23T00:33:52;14.10;99.90
2054;DHT22;1032;52.542;13.440;2022-10-23T00:36:20;14.60;99.90
2054;DHT22;1032;52.542;13.440;2022-10-23T00:38:47;14.70;99.90
2054;DHT22;1032;52.542;13.440;2022-10-23T00:41:17;14.40;99.90
2054;DHT22;1032;52.542;13.440;2022-10-23T00:44:06;14.20;99.90
2054;DHT22;1032;52.542;13.440;2022-10-23T00:46:33;14.70;99.90
2054;DHT22;1032;52.542;13.440;2022-10-23T00:49:02;14.10;99.90
2054;DHT22;1032;52.542;13.440;2022-10-23T00:51:35;14.50;99.90
2054;DHT22;1032;52.542;13.440;2022-10-23T00:54:02;14.60;99.90
2054;DHT22;1032;52.542;13.440;2022-10-23T00:56:30;14.40;99.90
2054;DHT22;1032;52.542;13.440;2022-10-23T00:58:58;14.50;99.90
2054;DHT22;1032;52.542;13.440;2022-10-23T01:01:25;14.90;99.90
2054;DHT22;1032;52.542;13.440;2022-10-23T01:03:52;14.70;99.90
2054;DHT22;1032;52.542;13.440;2022-10-23T01:06:28;14.90;99.90
2054;DHT22;1032;52.542;13.440;2022-10-23T01:09:02;14.80;99.90
2054;DHT22;1032;52.542;13.440;2022-10-23T01:11:38;14.70;99.90
2054;DHT22;1032;52.542;13.440;2022-10-23T01:14:12;14.90;99.90
2054;DHT22;1032;52.542;13.440;2022-10-23T01:16:46;14.80;99.90
2054;DHT22;1032;52.542;13.440;2022-10-23T01:19:19;14.90;99.90
2054;DHT22;1032;52.542;13.440;2022-10-23T01:21:54;15.00;99.90
2054;DHT22;1032;52.542;13.440;2022-10-23T01:24:32;14.90;99.90
2054;DHT22;1032;52.542;13.440;2022-10-23T01:27:17;15.00;99.90
2054;DHT22;1032;52.542;13.440;2022-10-23T01:29:46;14.80;99.90
2054;DHT22;1032;52.542;13.440;2022-10-23T01:32:18;15.10;99.90
2054;DHT22;1032;52.542;13.440;2022-10-23T01:34:49;15.00;99.90
2054;DHT22;1032;52.542;13.440;2022-10-23T01:37:22;14.70;99.90
2054;DHT22;1032;52.542;13.440;2022-10-23T01:39:53;14.90;99.90
2054;DHT22;1032;52.542;13.440;2022-10-23T01:42:27;14.80;99.90
2054;DHT22;1032;52.542;13.440;2022-10-23T01:44:58;15.00;99.90
2054;DHT22;1032;52.542;13.440;2022-10-23T01:47:34;14.50;99.90
2054;DHT22;1032;52.542;13.440;2022-10-23T01:50:06;14.80;99.90
2054;DHT22;1032;52.542;13.440;2022-10-23T01:52:33;14.50;99.90
2054;DHT22;1032;52.542;13.440;2022-10-23T01:55:03;14.60;99.90
2054;DHT22;1032;52.542;13.440;2022-10-23T01:57:34;14.70;99.90
2054;DHT22;1032;52.542;13.440;2022-10-23T02:00:05;14.60;99.90
2054;DHT22;1032;52.542;13.440;2022-10-23T02:02:38;14.70;99.90
2054;DHT22;1032;52.542;13.440;2022-10-23T02:05:08;14.60;99.90
2054;DHT22;1032;52.542;13.440;2022-10-23T02:07:36;15.00;99.90
2054;DHT22;1032;52.542;13.440;2022-10-23T02:10:05;14.60;99.90
2054;DHT22;1032;52.542;13.440;2022-10-23T02:12:39;15.00;99.90
2054;DHT22;1032;52.542;13.440;2022-10-23T02:15:11;14.70;99.90
2054;DHT22;1032;52.542;13.440;2022-10-23T02:17:44;14.80;99.90
2054;DHT22;1032;52.542;13.440;2022-10-23T02:20:18;14.70;99.90
2054;DHT22;1032;52.542;13.440;2022-10-23T02:22:56;14.90;99.90
2054;DHT22;1032;52.542;13.440;2022-10-23T02:25:29;14.90;99.90
2054;DHT22;1032;52.542;13.440;2022-10-23T02:28:03;14.90;99.90
2054;DHT22;1032;52.542;13.440;2022-10-23T02:30:40;14.90;99.90
2054;DHT22;1032;52.542;13.440;2022-10-23T02:33:12;14.80;99.90
2054;DHT22;1032;52.542;13.440;2022-10-23T02:35:40;14.80;99.90
2054;DHT22;1032;52.542;13.440;2022-10-23T02:38:29;14.40;99.90
2054;DHT22;1032;52.542;13.440;2022-10-23T02:40:57;14.90;99.90
2054;DHT22;1032;52.542;13.440;2022-10-23T02:43:33;14.80;99.90
2054;DHT22;1032;52.542;13.440;2022-10-23T02:46:08;14.90;99.90
2054;DHT22;1032;52.542;13.440;2022-10-23T02:48:41;15.00;99.90
2054;DHT22;1032;52.542;13.440;2022-10-23T02:51:14;15.10;99.90
2054;DHT22;1032;52.542;13.440;2022-10-23T02:53:51;14.40;99.90
2054;DHT22;1032;52.542;13.440;2022-10-23T02:56:23;14.70;99.90
2054;DHT22;1032;52.542;13.440;2022-10-23T02:58:59;14.80;99.90
2054;DHT22;1032;52.542;13.440;2022-10-23T03:01:35;14.70;99.90
2054;DHT22;1032;52.542;13.440;2022-10-23T03:04:04;14.60;99.90
2054;DHT22;1032;52.542;13.440;2022-10-23T03:06:32;14.80;99.90
2054;DHT22;1032;52.542;13.440;2022-10-23T03:09:01;14.60;99.90
2054;DHT22;1032;52.542;13.440;2022-10-23T03:11:28;14.80;99.90
2054;DHT22;1032;52.542;13.440;2022-10-23T03:13:56;14.30;99.90
2054;DHT22;1032;52.542;13.440;2022-10-23T03:16:23;14.80;99.90
2054;DHT22;1032;52.542;13.440;2022-10-23T03:18:52;14.70;99.90
2054;DHT22;1032;52.542;13.440;2022-10-23T03:21:19;14.60;99.90
2054;DHT22;1032;52.542;13.440;2022-10-23T03:23:49;14.60;99.90
2054;DHT22;1032;52.542;13.440;2022-10-23T03:26:21;14.70;99.90
2054;DHT22;1032;52.542;13.440;2022-10-23T03:28:47;14.40;99.90
2054;DHT22;1032;52.542;13.440;2022-10-23T03:31:18;14.30;99.90
2054;DHT22;1032;52.542;13.440;2022-10-23T03:33:45;14.30;99.90
2054;DHT22;1032;52.542;13.440;2022-10-23T03:36:12;14.20;99.90
2054;DHT22;1032;52.542;13.440;2022-10-23T03:38:39;14.20;99.90
2054;DHT22;1032;52.542;13.440;2022-10-23T03:41:05;13.90;99.90
2054;DHT22;1032;52.542;13.440;2022-10-23T03:43:32;14.50;99.90
2054;DHT22;1032;52.542;13.440;2022-10-23T03:45:59;14.30;99.90
2054;DHT22;1032;52.542;13.440;2022-10-23T03:48:27;14.50;99.90
2054;DHT22;1032;52.542;13.440;2022-10-23T03:50:57;14.30;99.90
2054;DHT22;1032;52.542;13.440;2022-10-23T03:53:24;14.10;99.90
2054;DHT22;1032;52.542;13.440;2022-10-23T03:55:50;14.10;99.90
2054;DHT22;1032;52.542;13.440;2022-10-23T03:58:17;14.20;99.90
2054;DHT22;1032;52.542;13.440;2022-10-23T04:00:44;14.10;99.90
2054;DHT22;1032;52.542;13.440;2022-10-23T04:03:11;14.20;99.90
2054;DHT22;1032;52.542;13.440;2022-10-23T04:05:40;14.30;99.90
2054;DHT22;1032;52.542;13.440;2022-10-23T04:08:07;14.00;99.90
2054;DHT22;1032;52.542;13.440;2022-10-23T04:10:34;14.10;99.90
2054;DHT22;1032;52.542;13.440;2022-10-23T04:13:01;14.10;99.90
2054;DHT22;1032;52.542;13.440;2022-10-23T04:15:31;13.70;99.90
2054;DHT22;1032;52.542;13.440;2022-10-23T04:18:00;13.90;99.90
2054;DHT22;1032;52.542;13.440;2022-10-23T04:20:27;13.90;99.90
2054;DHT22;1032;52.542;13.440;2022-10-23T04:22:55;13.70;99.90
2054;DHT22;1032;52.542;13.440;2022-10-23T04:25:21;14.00;99.90
2054;DHT22;1032;52.542;13.440;2022-10-23T04:27:49;13.60;99.90
2054;DHT22;1032;52.542;13.440;2022-10-23T04:30:16;13.80;99.90
2054;DHT22;1032;52.542;13.440;2022-10-23T04:32:44;13.20;99.90
2054;DHT22;1032;52.542;13.440;2022-10-23T04:35:10;13.60;99.90
2054;DHT22;1032;52.542;13.440;2022-10-23T04:37:37;13.60;99.90
2054;DHT22;1032;52.542;13.440;2022-10-23T04:40:07;13.60;99.90
2054;DHT22;1032;52.542;13.440;2022-10-23T04:42:36;13.60;99.90
2054;DHT22;1032;52.542;13.440;2022-10-23T04:45:03;13.50;99.90
2054;DHT22;1032;52.542;13.440;2022-10-23T04:47:30;13.50;99.90
2054;DHT22;1032;52.542;13.440;2022-10-23T04:49:58;13.30;99.90
2054;DHT22;1032;52.542;13.440;2022-10-23T04:52:43;13.60;99.90
2054;DHT22;1032;52.542;13.440;2022-10-23T04:55:29;13.50;99.90
2054;DHT22;1032;52.542;13.440;2022-10-23T04:58:16;13.20;99.90
2054;DHT22;1032;52.542;13.440;2022-10-23T05:00:43;13.40;99.90
2054;DHT22;1032;52.542;13.440;2022-10-23T05:03:13;13.00;99.90
2054;DHT22;1032;52.542;13.440;2022-10-23T05:05:41;13.10;99.90
2054;DHT22;1032;52.542;13.440;2022-10-23T05:08:27;12.90;99.90
2054;DHT22;1032;52.542;13.440;2022-10-23T05:11:14;13.20;99.90
2054;DHT22;1032;52.542;13.440;2022-10-23T05:13:46;13.40;99.90
2054;DHT22;1032;52.542;13.440;2022-10-23T05:16:25;13.40;99.90
2054;DHT22;1032;52.542;13.440;2022-10-23T05:18:54;13.40;99.90
2054;DHT22;1032;52.542;13.440;2022-10-23T05:21:24;13.10;99.90
2054;DHT22;1032;52.542;13.440;2022-10-23T05:23:52;13.40;99.90
2054;DHT22;1032;52.542;13.440;2022-10-23T05:26:20;13.20;99.90
2054;DHT22;1032;52.542;13.440;2022-10-23T05:28:48;13.30;99.90
2054;DHT22;1032;52.542;13.440;2022-10-23T05:31:17;13.20;99.90
2054;DHT22;1032;52.542;13.440;2022-10-23T05:33:48;12.50;99.90
2054;DHT22;1032;52.542;13.440;2022-10-23T05:36:15;12.90;99.90
2054;DHT22;1032;52.542;13.440;2022-10-23T05:38:44;13.10;99.90
2054;DHT22;1032;52.542;13.440;2022-10-23T05:41:15;13.30;99.90
2054;DHT22;1032;52.542;13.440;2022-10-23T05:43:43;13.20;99.90
2054;DHT22;1032;52.542;13.440;2022-10-23T05:46:29;13.20;99.90
2054;DHT22;1032;52.542;13.440;2022-10-23T05:49:14;12.50;99.90
2054;DHT22;1032;52.542;13.440;2022-10-23T05:51:51;12.90;99.90
2054;DHT22;1032;52.542;13.440;2022-10-23T05:54:27;13.00;99.90
2054;DHT22;1032;52.542;13.440;2022-10-23T05:57:12;13.10;99.90
2054;DHT22;1032;52.542;13.440;2022-10-23T05:59:47;12.70;99.90
2054;DHT22;1032;52.542;13.440;2022-10-23T06:02:26;13.20;99.90
2054;DHT22;1032;52.542;13.440;2022-10-23T06:05:03;12.80;99.90
2054;DHT22;1032;52.542;13.440;2022-10-23T06:07:50;13.10;99.90
2054;DHT22;1032;52.542;13.440;2022-10-23T06:10:18;12.80;99.90
2054;DHT22;1032;52.542;13.440;2022-10-23T06:12:47;13.00;99.90
2054;DHT22;1032;52.542;13.440;2022-10-23T06:15:17;12.80;99.90
2054;DHT22;1032;52.542;13.440;2022-10-23T06:18:02;13.00;99.90
2054;DHT22;1032;52.542;13.440;2022-10-23T06:20:34;13.00;99.90
2054;DHT22;1032;52.542;13.440;2022-10-23T06:23:08;13.50;99.90
2054;DHT22;1032;52.542;13.440;2022-10-23T06:25:54;13.50;99.90
2054;DHT22;1032;52.542;13.440;2022-10-23T06:28:28;13.10;99.90
2054;DHT22;1032;52.542;13.440;2022-10-23T06:30:56;13.10;99.90
2054;DHT22;1032;52.542;13.440;2022-10-23T06:33:23;13.10;99.90
2054;DHT22;1032;52.542;13.440;2022-10-23T06:35:50;12.60;99.90
2054;DHT22;1032;52.542;13.440;2022-10-23T06:38:16;13.60;99.90
2054;DHT22;1032;52.542;13.440;2022-10-23T06:40:52;13.60;99.90
2054;DHT22;1032;52.542;13.440;2022-10-23T06:43:26;13.10;99.90
2054;DHT22;1032;52.542;13.440;2022-10-23T06:46:13;13.20;99.90
2054;DHT22;1032;52.542;13.440;2022-10-23T06:49:00;13.70;99.90
2054;DHT22;1032;52.542;13.440;2022-10-23T06:51:30;13.40;99.90
2054;DHT22;1032;52.542;13.440;2022-10-23T06:53:57;13.20;99.90
2054;DHT22;1032;52.542;13.440;2022-10-23T06:56:42;13.20;99.90
2054;DHT22;1032;52.542;13.440;2022-10-23T06:59:10;13.20;99.90
2054;DHT22;1032;52.542;13.440;2022-10-23T07:01:38;13.60;99.90
2054;DHT22;1032;52.542;13.440;2022-10-23T07:04:06;13.50;99.90
2054;DHT22;1032;52.542;13.440;2022-10-23T07:06:33;13.60;99.90
2054;DHT22;1032;52.542;13.440;2022-10-23T07:08:59;13.60;99.90
2054;DHT22;1032;52.542;13.440;2022-10-23T07:11:52;13.20;99.90
2054;DHT22;1032;52.542;13.440;2022-10-23T07:14:26;14.20;99.90
2054;DHT22;1032;52.542;13.440;2022-10-23T07:16:56;13.70;99.90
2054;DHT22;1032;52.542;13.440;2022-10-23T07:19:23;13.60;99.90
2054;DHT22;1032;52.542;13.440;2022-10-23T07:21:55;13.70;99.90
2054;DHT22;1032;52.542;13.440;2022-10-23T07:24:41;13.40;99.90
2054;DHT22;1032;52.542;13.440;2022-10-23T07:27:25;13.30;99.90
2054;DHT22;1032;52.542;13.440;2022-10-23T07:29:59;13.90;99.90
2054;DHT22;1032;52.542;13.440;2022-10-23T07:32:30;13.30;99.90
2054;DHT22;1032;52.542;13.440;2022-10-23T07:35:34;13.60;99.90
2054;DHT22;1032;52.542;13.440;2022-10-23T07:38:07;13.90;99.90
2054;DHT22;1032;52.542;13.440;2022-10-23T07:40:39;14.10;99.90
2054;DHT22;1032;52.542;13.440;2022-10-23T07:43:08;14.30;99.90
2054;DHT22;1032;52.542;13.440;2022-10-23T07:45:34;13.80;99.90
2054;DHT22;1032;52.542;13.440;2022-10-23T07:48:10;14.20;99.90
2054;DHT22;1032;52.542;13.440;2022-10-23T07:50:58;13.90;99.90
2054;DHT22;1032;52.542;13.440;2022-10-23T07:53:26;14.30;99.90
2054;DHT22;1032;52.542;13.440;2022-10-23T07:56:00;14.10;99.90
2054;DHT22;1032;52.542;13.440;2022-10-23T07:58:46;14.60;99.90
2054;DHT22;1032;52.542;13.440;2022-10-23T08:01:18;14.40;99.90
2054;DHT22;1032;52.542;13.440;2022-10-23T08:03:46;14.70;99.90
2054;DHT22;1032;52.542;13.440;2022-10-23T08:06:13;14.40;99.90
2054;DHT22;1032;52.542;13.440;2022-10-23T08:08:40;14.40;99.90
2054;DHT22;1032;52.542;13.440;2022-10-23T08:11:10;14.50;99.90
2054;DHT22;1032;52.542;13.440;2022-10-23T08:13:46;14.70;99.90
2054;DHT22;1032;52.542;13.440;2022-10-23T08:16:12;14.60;99.90
2054;DHT22;1032;52.542;13.440;2022-10-23T08:19:00;14.80;99.90
2054;DHT22;1032;52.542;13.440;2022-10-23T08:21:28;14.80;99.90
2054;DHT22;1032;52.542;13.440;2022-10-23T08:23:56;14.90;99.90
2054;DHT22;1032;52.542;13.440;2022-10-23T08:26:23;15.00;99.90
2054;DHT22;1032;52.542;13.440;2022-10-23T08:28:51;14.90;99.90
2054;DHT22;1032;52.542;13.440;2022-10-23T08:31:19;15.00;99.90
2054;DHT22;1032;52.542;13.440;2022-10-23T08:34:06;14.70;99.90
2054;DHT22;1032;52.542;13.440;2022-10-23T08:36:33;14.80;99.90
2054;DHT22;1032;52.542;13.440;2022-10-23T08:39:02;15.10;99.90
2054;DHT22;1032;52.542;13.440;2022-10-23T08:41:32;14.80;99.90
2054;DHT22;1032;52.542;13.440;2022-10-23T08:44:11;15.20;99.90
2054;DHT22;1032;52.542;13.440;2022-10-23T08:46:45;15.50;99.90
2054;DHT22;1032;52.542;13.440;2022-10-23T08:49:41;15.20;99.90
2054;DHT22;1032;52.542;13.440;2022-10-23T08:52:16;15.40;99.90
2054;DHT22;1032;52.542;13.440;2022-10-23T08:54:55;15.40;99.90
2054;DHT22;1032;52.542;13.440;2022-10-23T08:57:23;15.30;99.90
2054;DHT22;1032;52.542;13.440;2022-10-23T08:59:59;15.50;99.90
2054;DHT22;1032;52.542;13.440;2022-10-23T09:02:29;15.20;99.90
2054;DHT22;1032;52.542;13.440;2022-10-23T09:04:58;15.20;99.90
2054;DHT22;1032;52.542;13.440;2022-10-23T09:07:33;15.30;99.90
2054;DHT22;1032;52.542;13.440;2022-10-23T09:10:11;15.40;99.90
2054;DHT22;1032;52.542;13.440;2022-10-23T09:12:40;15.50;99.90
2054;DHT22;1032;52.542;13.440;2022-10-23T09:15:21;15.10;99.90
2054;DHT22;1032;52.542;13.440;2022-10-23T09:17:54;15.20;99.90
2054;DHT22;1032;52.542;13.440;2022-10-23T09:20:25;15.20;99.90
2054;DHT22;1032;52.542;13.440;2022-10-23T09:22:54;15.40;99.90
2054;DHT22;1032;52.542;13.440;2022-10-23T09:25:24;15.30;99.90
2054;DHT22;1032;52.542;13.440;2022-10-23T09:27:52;15.40;99.90
2054;DHT22;1032;52.542;13.440;2022-10-23T09:30:27;15.20;99.90
2054;DHT22;1032;52.542;13.440;2022-10-23T09:32:54;15.50;99.90
2054;DHT22;1032;52.542;13.440;2022-10-23T09:35:25;15.10;99.90
2054;DHT22;1032;52.542;13.440;2022-10-23T09:37:52;15.50;99.90
2054;DHT22;1032;52.542;13.440;2022-10-23T09:40:26;15.60;99.90
2054;DHT22;1032;52.542;13.440;2022-10-23T09:42:56;15.30;99.90
2054;DHT22;1032;52.542;13.440;2022-10-23T09:45:26;15.70;99.90
2054;DHT22;1032;52.542;13.440;2022-10-23T09:48:13;15.70;99.90
2054;DHT22;1032;52.542;13.440;2022-10-23T09:50:50;15.70;99.90
2054;DHT22;1032;52.542;13.440;2022-10-23T09:53:22;15.60;99.90
2054;DHT22;1032;52.542;13.440;2022-10-23T09:55:51;15.80;99.90
2054;DHT22;1032;52.542;13.440;2022-10-23T09:58:20;15.80;99.90
2054;DHT22;1032;52.542;13.440;2022-10-23T10:00:50;16.10;99.90
2054;DHT22;1032;52.542;13.440;2022-10-23T10:03:19;16.30;99.90
2054;DHT22;1032;52.542;13.440;2022-10-23T10:06:03;15.80;99.90
2054;DHT22;1032;52.542;13.440;2022-10-23T10:08:42;16.10;99.90
2054;DHT22;1032;52.542;13.440;2022-10-23T10:11:16;16.00;99.90
2054;DHT22;1032;52.542;13.440;2022-10-23T10:13:59;16.50;99.90
2054;DHT22;1032;52.542;13.440;2022-10-23T10:16:32;16.10;99.90
2054;DHT22;1032;52.542;13.440;2022-10-23T10:19:14;16.30;99.90
2054;DHT22;1032;52.542;13.440;2022-10-23T10:21:50;16.30;99.90
2054;DHT22;1032;52.542;13.440;2022-10-23T10:24:21;16.10;99.90
2054;DHT22;1032;52.542;13.440;2022-10-23T10:26:57;16.50;99.90
2054;DHT22;1032;52.542;13.440;2022-10-23T10:29:42;16.40;99.90
2054;DHT22;1032;52.542;13.440;2022-10-23T10:32:19;16.50;99.90
2054;DHT22;1032;52.542;13.440;2022-10-23T10:34:52;16.60;99.90
2054;DHT22;1032;52.542;13.440;2022-10-23T10:37:28;16.70;99.90
2054;DHT22;1032;52.542;13.440;2022-10-23T10:40:02;16.60;99.90
2054;DHT22;1032;52.542;13.440;2022-10-23T10:42:49;17.20;99.90
2054;DHT22;1032;52.542;13.440;2022-10-23T10:45:27;16.80;99.90
2054;DHT22;1032;52.542;13.440;2022-10-23T10:48:16;17.20;99.90
2054;DHT22;1032;52.542;13.440;2022-10-23T10:51:06;16.90;99.90
2054;DHT22;1032;52.542;13.440;2022-10-23T10:54:00;17.00;99.90
2054;DHT22;1032;52.542;13.440;2022-10-23T10:56:34;16.90;99.90
2054;DHT22;1032;52.542;13.440;2022-10-23T10:59:04;16.70;99.90
2054;DHT22;1032;52.542;13.440;2022-10-23T11:01:40;17.20;99.90
2054;DHT22;1032;52.542;13.440;2022-10-23T11:04:13;17.30;99.90
2054;DHT22;1032;52.542;13.440;2022-10-23T11:06:45;17.10;99.90
2054;DHT22;1032;52.542;13.440;2022-10-23T11:09:19;17.20;99.90
2054;DHT22;1032;52.542;13.440;2022-10-23T11:11:46;17.60;99.90
2054;DHT22;1032;52.542;13.440;2022-10-23T11:14:14;17.30;99.90
2054;DHT22;1032;52.542;13.440;2022-10-23T11:16:44;17.20;99.90
2054;DHT22;1032;52.542;13.440;2022-10-23T11:19:17;17.30;99.90
2054;DHT22;1032;52.542;13.440;2022-10-23T11:21:50;17.40;99.90
2054;DHT22;1032;52.542;13.440;2022-10-23T11:24:42;17.30;99.90
2054;DHT22;1032;52.542;13.440;2022-10-23T11:27:22;17.70;99.90
2054;DHT22;1032;52.542;13.440;2022-10-23T11:30:14;18.00;99.90
2054;DHT22;1032;52.542;13.440;2022-10-23T11:32:58;17.90;99.90
2054;DHT22;1032;52.542;13.440;2022-10-23T11:35:41;17.80;99.90
2054;DHT22;1032;52.542;13.440;2022-10-23T11:38:16;17.80;99.90
2054;DHT22;1032;52.542;13.440;2022-10-23T11:40:46;17.90;99.90
2054;DHT22;1032;52.542;13.440;2022-10-23T11:43:25;18.10;99.90
2054;DHT22;1032;52.542;13.440;2022-10-23T11:45:52;18.00;99.90
2054;DHT22;1032;52.542;13.440;2022-10-23T11:48:20;17.80;99.90
2054;DHT22;1032;52.542;13.440;2022-10-23T11:50:52;18.10;99.90
2054;DHT22;1032;52.542;13.440;2022-10-23T11:53:27;18.00;99.90
2054;DHT22;1032;52.542;13.440;2022-10-23T11:56:24;18.00;99.90
2054;DHT22;1032;52.542;13.440;2022-10-23T11:58:52;18.00;99.90
2054;DHT22;1032;52.542;13.440;2022-10-23T12:01:27;17.90;99.90
2054;DHT22;1032;52.542;13.440;2022-10-23T12:03:58;17.90;99.90
2054;DHT22;1032;52.542;13.440;2022-10-23T12:06:28;18.00;99.90
2054;DHT22;1032;52.542;13.440;2022-10-23T12:09:00;18.10;99.90
2054;DHT22;1032;52.542;13.440;2022-10-23T12:11:42;18.10;99.90
2054;DHT22;1032;52.542;13.440;2022-10-23T12:14:25;18.10;99.90
2054;DHT22;1032;52.542;13.440;2022-10-23T12:16:52;18.20;99.90
2054;DHT22;1032;52.542;13.440;2022-10-23T12:19:20;18.10;99.90
2054;DHT22;1032;52.542;13.440;2022-10-23T12:21:50;17.90;99.90
2054;DHT22;1032;52.542;13.440;2022-10-23T12:24:31;18.30;99.90
2054;DHT22;1032;52.542;13.440;2022-10-23T12:27:22;18.40;99.90
2054;DHT22;1032;52.542;13.440;2022-10-23T12:30:19;18.20;99.90
2054;DHT22;1032;52.542;13.440;2022-10-23T12:33:08;18.30;99.90
2054;DHT22;1032;52.542;13.440;2022-10-23T12:35:52;18.40;99.90
2054;DHT22;1032;52.542;13.440;2022-10-23T12:38:25;18.30;99.90
2054;DHT22;1032;52.542;13.440;2022-10-23T12:40:54;18.40;99.90
2054;DHT22;1032;52.542;13.440;2022-10-23T12:43:25;18.50;99.90
2054;DHT22;1032;52.542;13.440;2022-10-23T12:45:54;18.40;99.90
2054;DHT22;1032;52.542;13.440;2022-10-23T12:48:22;18.40;99.90
2054;DHT22;1032;52.542;13.440;2022-10-23T12:50:51;18.70;99.90
2054;DHT22;1032;52.542;13.440;2022-10-23T12:53:21;18.50;99.90
2054;DHT22;1032;52.542;13.440;2022-10-23T12:55:51;18.50;99.90
2054;DHT22;1032;52.542;13.440;2022-10-23T12:58:20;18.50;99.90
2054;DHT22;1032;52.542;13.440;2022-10-23T13:00:51;18.40;99.90
2054;DHT22;1032;52.542;13.440;2022-10-23T13:03:20;18.40;99.90
2054;DHT22;1032;52.542;13.440;2022-10-23T13:05:49;18.80;99.90
2054;DHT22;1032;52.542;13.440;2022-10-23T13:08:17;18.80;99.90
2054;DHT22;1032;52.542;13.440;2022-10-23T13:11:04;18.70;99.90
2054;DHT22;1032;52.542;13.440;2022-10-23T13:13:34;18.80;99.90
2054;DHT22;1032;52.542;13.440;2022-10-23T13:16:12;19.00;99.90
2054;DHT22;1032;52.542;13.440;2022-10-23T13:18:40;18.70;99.90
2054;DHT22;1032;52.542;13.440;2022-10-23T13:21:14;18.70;99.90
2054;DHT22;1032;52.542;13.440;2022-10-23T13:23:41;18.30;99.90
2054;DHT22;1032;52.542;13.440;2022-10-23T13:26:23;18.60;99.90
2054;DHT22;1032;52.542;13.440;2022-10-23T13:28:50;18.80;99.90
2054;DHT22;1032;52.542;13.440;2022-10-23T13:31:28;18.90;99.90
2054;DHT22;1032;52.542;13.440;2022-10-23T13:34:23;18.70;99.90
2054;DHT22;1032;52.542;13.440;2022-10-23T13:36:57;18.80;99.90
2054;DHT22;1032;52.542;13.440;2022-10-23T13:39:27;18.80;99.90
2054;DHT22;1032;52.542;13.440;2022-10-23T13:41:55;18.80;99.90
2054;DHT22;1032;52.542;13.440;2022-10-23T13:44:23;18.80;99.90
2054;DHT22;1032;52.542;13.440;2022-10-23T13:46:52;18.70;99.90
2054;DHT22;1032;52.542;13.440;2022-10-23T13:49:19;18.60;99.90
2054;DHT22;1032;52.542;13.440;2022-10-23T13:51:48;18.70;99.90
2054;DHT22;1032;52.542;13.440;2022-10-23T13:54:17;18.60;99.90
2054;DHT22;1032;52.542;13.440;2022-10-23T13:56:44;19.20;99.90
2054;DHT22;1032;52.542;13.440;2022-10-23T13:59:12;18.90;99.90
2054;DHT22;1032;52.542;13.440;2022-10-23T14:01:39;18.70;99.90
2054;DHT22;1032;52.542;13.440;2022-10-23T14:04:07;18.70;99.90
2054;DHT22;1032;52.542;13.440;2022-10-23T14:06:36;18.60;99.90
2054;DHT22;1032;52.542;13.440;2022-10-23T14:09:04;18.40;99.90
2054;DHT22;1032;52.542;13.440;2022-10-23T14:11:30;18.70;99.90
2054;DHT22;1032;52.542;13.440;2022-10-23T14:13:57;18.70;99.90
2054;DHT22;1032;52.542;13.440;2022-10-23T14:16:24;18.50;99.90
2054;DHT22;1032;52.542;13.440;2022-10-23T14:18:51;18.40;99.90
2054;DHT22;1032;52.542;13.440;2022-10-23T14:21:21;18.40;99.90
2054;DHT22;1032;52.542;13.440;2022-10-23T14:23:49;18.70;99.90
2054;DHT22;1032;52.542;13.440;2022-10-23T14:26:19;18.60;99.90
2054;DHT22;1032;52.542;13.440;2022-10-23T14:28:45;18.50;99.90
2054;DHT22;1032;52.542;13.440;2022-10-23T14:31:14;18.80;99.90
2054;DHT22;1032;52.542;13.440;2022-10-23T14:33:42;18.40;99.90
2054;DHT22;1032;52.542;13.440;2022-10-23T14:36:09;18.30;99.90
2054;DHT22;1032;52.542;13.440;2022-10-23T14:38:37;18.60;99.90
2054;DHT22;1032;52.542;13.440;2022-10-23T14:41:08;18.40;99.90
2054;DHT22;1032;52.542;13.440;2022-10-23T14:43:35;18.20;99.90
2054;DHT22;1032;52.542;13.440;2022-10-23T14:46:07;18.30;99.90
2054;DHT22;1032;52.542;13.440;2022-10-23T14:48:34;18.40;99.90
2054;DHT22;1032;52.542;13.440;2022-10-23T14:51:03;18.10;99.90
2054;DHT22;1032;52.542;13.440;2022-10-23T14:53:30;18.30;99.90
2054;DHT22;1032;52.542;13.440;2022-10-23T14:56:01;18.60;99.90
2054;DHT22;1032;52.542;13.440;2022-10-23T14:58:28;18.60;99.90
2054;DHT22;1032;52.542;13.440;2022-10-23T15:00:59;18.00;99.90
2054;DHT22;1032;52.542;13.440;2022-10-23T15:03:26;18.20;99.90
2054;DHT22;1032;52.542;13.440;2022-10-23T15:05:53;18.30;99.90
2054;DHT22;1032;52.542;13.440;2022-10-23T15:08:20;18.20;99.90
2054;DHT22;1032;52.542;13.440;2022-10-23T15:10:47;18.10;99.90
2054;DHT22;1032;52.542;13.440;2022-10-23T15:13:15;18.10;99.90
2054;DHT22;1032;52.542;13.440;2022-10-23T15:15:42;18.30;99.90
2054;DHT22;1032;52.542;13.440;2022-10-23T15:18:08;18.00;99.90
2054;DHT22;1032;52.542;13.440;2022-10-23T15:20:35;17.80;99.90
2054;DHT22;1032;52.542;13.440;2022-10-23T15:23:02;18.10;99.90
2054;DHT22;1032;52.542;13.440;2022-10-23T15:25:29;18.10;99.90
2054;DHT22;1032;52.542;13.440;2022-10-23T15:27:55;18.00;99.90
2054;DHT22;1032;52.542;13.440;2022-10-23T15:30:23;18.00;99.90
2054;DHT22;1032;52.542;13.440;2022-10-23T15:32:50;18.00;99.90
2054;DHT22;1032;52.542;13.440;2022-10-23T15:35:16;17.90;99.90
2054;DHT22;1032;52.542;13.440;2022-10-23T15:37:43;17.90;99.90
2054;DHT22;1032;52.542;13.440;2022-10-23T15:40:10;17.80;99.90
2054;DHT22;1032;52.542;13.440;2022-10-23T15:42:37;17.80;99.90
2054;DHT22;1032;52.542;13.440;2022-10-23T15:45:04;17.80;99.90
2054;DHT22;1032;52.542;13.440;2022-10-23T15:47:32;17.70;99.90
2054;DHT22;1032;52.542;13.440;2022-10-23T15:49:58;17.60;99.90
2054;DHT22;1032;52.542;13.440;2022-10-23T15:52:25;17.60;99.90
2054;DHT22;1032;52.542;13.440;2022-10-23T15:54:52;17.50;99.90
2054;DHT22;1032;52.542;13.440;2022-10-23T15:57:18;17.80;99.90
2054;DHT22;1032;52.542;13.440;2022-10-23T15:59:45;17.50;99.90
2054;DHT22;1032;52.542;13.440;2022-10-23T16:02:12;17.40;99.90
2054;DHT22;1032;52.542;13.440;2022-10-23T16:04:41;17.40;99.90
2054;DHT22;1032;52.542;13.440;2022-10-23T16:07:07;17.40;99.90
2054;DHT22;1032;52.542;13.440;2022-10-23T16:09:34;17.30;99.90
2054;DHT22;1032;52.542;13.440;2022-10-23T16:12:01;17.40;99.90
2054;DHT22;1032;52.542;13.440;2022-10-23T16:14:28;17.30;99.90
2054;DHT22;1032;52.542;13.440;2022-10-23T16:16:55;17.10;99.90